createdAt,value
2023-04-07T00:00:26.946Z,5.75
2023-04-07T00:02:54.203Z,5.45
2023-04-07T00:05:21.126Z,5.30
2023-04-07T00:07:55.980Z,5.30
2023-04-07T00:10:25.128Z,5.95
2023-04-07T00:12:52.288Z,5.75
2023-04-07T00:15:19.383Z,5.28
2023-04-07T00:17:46.333Z,5.18
2023-04-07T00:20:13.425Z,5.90
2023-04-07T00:22:40.293Z,5.65
2023-04-07T00:25:07.719Z,6.32
2023-04-07T00:27:34.580Z,5.80
2023-04-07T00:30:01.527Z,6.03
2023-04-07T00:32:28.528Z,6.20
2023-04-07T00:34:55.396Z,6.38
2023-04-07T00:37:22.238Z,6.25
2023-04-07T00:39:49.182Z,6.32
2023-04-07T00:42:16.085Z,6.18
2023-04-07T00:44:42.912Z,6.55
2023-04-07T00:47:09.793Z,6.95
2023-04-07T00:49:37.815Z,6.50
2023-04-07T00:52:05.864Z,6.60
2023-04-07T00:54:32.783Z,6.82
2023-04-07T00:56:59.573Z,6.85
2023-04-07T00:59:26.523Z,6.80
2023-04-07T01:02:11.059Z,7.22
2023-04-07T01:04:46.850Z,6.97
2023-04-07T01:07:20.789Z,7.07
2023-04-07T01:10:02.290Z,7.38
2023-04-07T01:12:50.766Z,7.03
2023-04-07T01:15:22.695Z,6.85
2023-04-07T01:17:54.356Z,7.20
2023-04-07T01:20:23.311Z,6.90
2023-04-07T01:22:54.592Z,6.78
2023-04-07T01:25:56.263Z,7.05
2023-04-07T01:28:34.333Z,7.00
2023-04-07T01:31:01.880Z,7.80
2023-04-07T01:33:29.740Z,6.78
2023-04-07T01:35:59.601Z,7.15
2023-04-07T01:38:26.764Z,7.65
2023-04-07T01:40:55.342Z,7.03
2023-04-07T01:43:23.610Z,7.78
2023-04-07T01:45:51.450Z,6.55
2023-04-07T01:48:18.609Z,7.22
2023-04-07T01:50:46.764Z,7.50
2023-04-07T01:53:14.528Z,6.85
2023-04-07T01:55:43.010Z,7.63
2023-04-07T01:58:09.919Z,6.43
2023-04-07T02:00:36.870Z,7.38
2023-04-07T02:03:21.287Z,6.75
2023-04-07T02:05:50.582Z,7.38
2023-04-07T02:08:18.536Z,7.20
2023-04-07T02:10:47.164Z,7.55
2023-04-07T02:13:19.059Z,7.15
2023-04-07T02:15:46.049Z,7.10
2023-04-07T02:18:14.915Z,6.72
2023-04-07T02:20:46.417Z,7.43
2023-04-07T02:23:13.726Z,5.13
2023-04-07T02:25:40.699Z,6.90
2023-04-07T02:28:07.640Z,7.47
2023-04-07T02:30:35.666Z,7.97
2023-04-07T02:33:02.675Z,8.00
2023-04-07T02:35:29.592Z,6.97
2023-04-07T02:37:56.444Z,8.00
2023-04-07T02:40:26.040Z,8.63
2023-04-07T02:42:52.925Z,7.65
2023-04-07T02:45:19.787Z,7.80
2023-04-07T02:47:46.629Z,8.80
2023-04-07T02:50:13.557Z,8.30
2023-04-07T02:52:40.555Z,8.50
2023-04-07T02:55:07.864Z,8.35
2023-04-07T02:57:34.775Z,8.23
2023-04-07T03:00:01.708Z,8.20
2023-04-07T03:02:28.708Z,7.88
2023-04-07T03:04:55.676Z,7.68
2023-04-07T03:07:22.483Z,8.60
2023-04-07T03:09:49.488Z,8.38
2023-04-07T03:12:16.392Z,8.45
2023-04-07T03:14:43.275Z,7.78
2023-04-07T03:17:11.008Z,8.02
2023-04-07T03:19:37.897Z,8.10
2023-04-07T03:22:04.725Z,8.35
2023-04-07T03:24:31.781Z,7.38
2023-04-07T03:26:58.678Z,8.15
2023-04-07T03:29:25.650Z,8.35
2023-04-07T03:31:52.551Z,7.82
2023-04-07T03:34:19.447Z,7.88
2023-04-07T03:36:48.771Z,8.30
2023-04-07T03:39:15.562Z,7.22
2023-04-07T03:41:42.368Z,7.70
2023-04-07T03:44:09.271Z,7.57
2023-04-07T03:46:36.373Z,7.45
2023-04-07T03:49:03.252Z,7.18
2023-04-07T03:51:30.287Z,7.90
2023-04-07T03:53:57.151Z,8.13
2023-04-07T03:56:25.223Z,8.25
2023-04-07T03:58:52.864Z,7.90
2023-04-07T04:01:19.731Z,8.48
2023-04-07T04:03:47.376Z,8.45
2023-04-07T04:06:14.473Z,8.57
2023-04-07T04:08:41.380Z,10.65
2023-04-07T04:11:08.159Z,9.52
2023-04-07T04:13:35.001Z,8.60
2023-04-07T04:16:02.704Z,8.27
2023-04-07T04:18:29.504Z,8.45
2023-04-07T04:20:56.341Z,7.90
2023-04-07T04:23:23.182Z,7.50
2023-04-07T04:25:50.102Z,7.57
2023-04-07T04:28:16.921Z,8.00
2023-04-07T04:30:43.781Z,8.15
2023-04-07T04:33:10.582Z,7.93
2023-04-07T04:35:39.812Z,7.68
2023-04-07T04:38:06.897Z,7.25
2023-04-07T04:40:33.684Z,7.43
2023-04-07T04:43:00.561Z,7.90
2023-04-07T04:45:27.489Z,7.38
2023-04-07T04:47:54.432Z,8.55
2023-04-07T04:50:21.538Z,7.63
2023-04-07T04:52:48.426Z,7.97
2023-04-07T04:55:15.381Z,8.05
2023-04-07T04:57:42.220Z,7.28
2023-04-07T05:00:10.049Z,8.02
2023-04-07T05:02:37.450Z,8.02
2023-04-07T05:05:04.741Z,7.68
2023-04-07T05:07:31.772Z,8.20
2023-04-07T05:09:58.660Z,8.40
2023-04-07T05:12:25.581Z,8.27
2023-04-07T05:14:52.410Z,8.52
2023-04-07T05:17:19.319Z,8.70
2023-04-07T05:19:46.252Z,9.15
2023-04-07T05:22:13.074Z,10.13
2023-04-07T05:24:39.893Z,9.68
2023-04-07T05:27:09.262Z,11.15
2023-04-07T05:29:36.317Z,12.13
2023-04-07T05:32:07.130Z,8.43
2023-04-07T05:34:34.099Z,8.55
2023-04-07T05:37:01.014Z,8.77
2023-04-07T05:39:27.876Z,8.07
2023-04-07T05:41:54.700Z,7.38
2023-04-07T05:44:21.508Z,7.70
2023-04-07T05:46:48.376Z,8.43
2023-04-07T05:49:20.206Z,9.27
2023-04-07T05:51:48.835Z,10.07
2023-04-07T05:54:16.472Z,10.10
2023-04-07T05:56:43.416Z,9.25
2023-04-07T05:59:10.695Z,9.90
2023-04-07T06:01:37.600Z,8.98
2023-04-07T06:04:04.571Z,10.00
2023-04-07T06:06:31.541Z,8.90
2023-04-07T06:08:58.506Z,9.63
2023-04-07T06:11:27.430Z,9.32
2023-04-07T06:13:54.448Z,9.00
2023-04-07T06:16:21.418Z,8.93
2023-04-07T06:18:48.302Z,9.75
2023-04-07T06:21:15.666Z,8.82
2023-04-07T06:23:42.662Z,10.32
2023-04-07T06:26:12.821Z,9.68
2023-04-07T06:28:40.403Z,9.88
2023-04-07T06:31:08.860Z,9.57
2023-04-07T06:33:36.092Z,10.20
2023-04-07T06:36:03.036Z,9.13
2023-04-07T06:38:30.016Z,9.27
2023-04-07T06:40:56.929Z,8.82
2023-04-07T06:43:23.805Z,9.52
2023-04-07T06:45:50.788Z,9.98
2023-04-07T06:48:17.693Z,8.65
2023-04-07T06:50:49.595Z,9.82
2023-04-07T06:53:16.457Z,9.05
2023-04-07T06:55:43.253Z,10.25
2023-04-07T06:58:10.100Z,9.35
2023-04-07T07:00:37.157Z,9.80
2023-04-07T07:03:04.189Z,9.45
2023-04-07T07:05:31.370Z,9.38
2023-04-07T07:07:58.278Z,10.07
2023-04-07T07:10:25.376Z,8.57
2023-04-07T07:12:52.273Z,9.10
2023-04-07T07:15:19.260Z,8.80
2023-04-07T07:17:46.376Z,9.52
2023-04-07T07:20:13.237Z,9.48
2023-04-07T07:22:40.051Z,10.10
2023-04-07T07:25:07.210Z,9.40
2023-04-07T07:27:34.156Z,9.82
2023-04-07T07:30:01.263Z,11.27
2023-04-07T07:32:28.142Z,14.88
2023-04-07T07:34:55.088Z,11.88
2023-04-07T07:37:22.004Z,10.55
2023-04-07T07:39:49.653Z,11.10
2023-04-07T07:42:16.572Z,10.95
2023-04-07T07:44:43.449Z,10.50
2023-04-07T07:47:10.508Z,10.13
2023-04-07T07:49:37.700Z,9.73
2023-04-07T07:52:04.658Z,10.13
2023-04-07T07:54:31.455Z,9.63
2023-04-07T07:56:58.312Z,10.00
2023-04-07T07:59:25.327Z,9.93
2023-04-07T08:01:52.291Z,10.65
2023-04-07T08:04:19.432Z,8.65
2023-04-07T08:06:46.559Z,8.93
2023-04-07T08:09:13.396Z,9.95
2023-04-07T08:11:40.302Z,9.80
2023-04-07T08:14:08.726Z,9.77
2023-04-07T08:16:36.995Z,10.20
2023-04-07T08:19:03.942Z,9.25
2023-04-07T08:21:31.771Z,8.90
2023-04-07T08:23:58.611Z,10.80
2023-04-07T08:26:25.452Z,10.10
2023-04-07T08:28:53.722Z,9.20
2023-04-07T08:31:20.837Z,9.95
2023-04-07T08:33:48.047Z,8.40
2023-04-07T08:36:15.029Z,10.20
2023-04-07T08:38:41.901Z,9.63
2023-04-07T08:41:12.219Z,8.70
2023-04-07T08:43:39.602Z,7.57
2023-04-07T08:46:06.608Z,8.45
2023-04-07T08:48:34.777Z,9.02
2023-04-07T08:51:06.223Z,8.23
2023-04-07T08:53:50.302Z,8.73
2023-04-07T08:56:21.471Z,7.75
2023-04-07T08:58:48.978Z,8.13
2023-04-07T09:01:16.663Z,7.68
2023-04-07T09:03:57.683Z,7.80
2023-04-07T09:06:25.548Z,8.60
2023-04-07T09:08:52.524Z,9.23
2023-04-07T09:11:19.500Z,8.32
2023-04-07T09:13:47.218Z,7.97
2023-04-07T09:16:14.586Z,8.00
2023-04-07T09:18:42.624Z,7.30
2023-04-07T09:21:09.924Z,7.88
2023-04-07T09:23:38.782Z,8.70
2023-04-07T09:26:25.810Z,8.68
2023-04-07T09:28:55.790Z,9.25
2023-04-07T09:31:23.500Z,7.65
2023-04-07T09:33:50.659Z,7.55
2023-04-07T09:36:18.246Z,7.55
2023-04-07T09:38:46.167Z,7.72
2023-04-07T09:41:17.270Z,6.90
2023-04-07T09:43:45.826Z,6.95
2023-04-07T09:46:13.113Z,7.35
2023-04-07T09:48:40.571Z,7.78
2023-04-07T09:51:09.729Z,10.40
2023-04-07T09:53:52.733Z,12.43
2023-04-07T09:56:24.042Z,7.57
2023-04-07T09:58:51.953Z,7.28
2023-04-07T10:01:19.447Z,8.23
2023-04-07T10:03:47.825Z,7.45
2023-04-07T10:06:15.050Z,7.57
2023-04-07T10:08:43.007Z,7.22
2023-04-07T10:11:10.363Z,7.22
2023-04-07T10:13:39.019Z,7.05
2023-04-07T10:16:07.647Z,14.90
2023-04-07T10:18:36.090Z,18.45
2023-04-07T10:21:05.197Z,7.97
2023-04-07T10:23:59.478Z,7.50
2023-04-07T10:26:30.410Z,7.82
2023-04-07T10:29:01.816Z,7.38
2023-04-07T10:31:29.057Z,7.60
2023-04-07T10:33:57.102Z,7.15
2023-04-07T10:36:23.979Z,7.63
2023-04-07T10:39:09.232Z,7.15
2023-04-07T10:41:37.065Z,7.38
2023-04-07T10:44:08.615Z,7.97
2023-04-07T10:47:01.369Z,8.00
2023-04-07T10:49:29.089Z,7.97
2023-04-07T10:52:14.977Z,7.93
2023-04-07T10:54:42.972Z,9.15
2023-04-07T10:57:11.948Z,8.35
2023-04-07T11:00:00.172Z,7.75
2023-04-07T11:02:27.505Z,8.55
2023-04-07T11:04:54.622Z,8.45
2023-04-07T11:07:46.072Z,7.95
2023-04-07T11:10:13.804Z,8.13
2023-04-07T11:12:40.859Z,9.73
2023-04-07T11:15:22.190Z,8.60
2023-04-07T11:18:19.905Z,8.68
2023-04-07T11:20:53.690Z,8.30
2023-04-07T11:23:23.880Z,9.15
2023-04-07T11:25:52.474Z,9.63
2023-04-07T11:28:20.187Z,8.07
2023-04-07T11:30:54.260Z,8.00
2023-04-07T11:33:27.305Z,8.68
2023-04-07T11:35:59.004Z,8.63
2023-04-07T11:38:28.367Z,8.10
2023-04-07T11:40:56.467Z,8.52
2023-04-07T11:43:27.160Z,8.00
2023-04-07T11:46:16.321Z,8.20
2023-04-07T11:48:44.981Z,6.63
2023-04-07T11:51:24.158Z,7.75
2023-04-07T11:53:57.988Z,7.63
2023-04-07T11:56:24.923Z,8.48
2023-04-07T11:58:55.737Z,8.45
2023-04-07T12:01:24.849Z,8.05
2023-04-07T12:04:03.055Z,8.07
2023-04-07T12:06:41.580Z,7.78
2023-04-07T12:09:27.968Z,8.65
2023-04-07T12:11:55.528Z,8.25
2023-04-07T12:14:22.488Z,7.95
2023-04-07T12:16:50.872Z,9.02
2023-04-07T12:19:18.424Z,9.80
2023-04-07T12:21:45.349Z,8.82
2023-04-07T12:24:12.263Z,9.63
2023-04-07T12:26:39.174Z,10.55
2023-04-07T12:29:07.027Z,10.88
2023-04-07T12:31:34.538Z,10.32
2023-04-07T12:34:01.590Z,12.57
2023-04-07T12:36:29.637Z,10.45
2023-04-07T12:38:57.159Z,11.05
2023-04-07T12:41:25.000Z,11.07
2023-04-07T12:43:52.543Z,10.75
2023-04-07T12:46:20.629Z,10.60
2023-04-07T12:48:48.235Z,10.48
2023-04-07T12:51:15.619Z,10.13
2023-04-07T12:53:42.573Z,9.35
2023-04-07T12:56:09.602Z,10.93
2023-04-07T12:58:36.710Z,11.25
2023-04-07T13:01:03.721Z,10.25
2023-04-07T13:03:30.785Z,11.02
2023-04-07T13:06:01.263Z,10.80
2023-04-07T13:08:29.350Z,11.98
2023-04-07T13:10:56.963Z,11.40
2023-04-07T13:13:24.277Z,11.25
2023-04-07T13:15:51.730Z,11.25
2023-04-07T13:18:18.808Z,12.60
2023-04-07T13:20:54.970Z,12.82
2023-04-07T13:23:42.929Z,11.85
2023-04-07T13:26:10.772Z,11.88
2023-04-07T13:28:38.114Z,11.57
2023-04-07T13:31:05.057Z,11.15
2023-04-07T13:33:32.102Z,11.13
2023-04-07T13:35:59.029Z,11.57
2023-04-07T13:38:26.560Z,12.98
2023-04-07T13:40:53.548Z,11.00
2023-04-07T13:43:20.601Z,11.77
2023-04-07T13:45:48.751Z,11.93
2023-04-07T13:48:15.987Z,11.95
2023-04-07T13:50:43.866Z,12.90
2023-04-07T13:53:10.774Z,12.15
2023-04-07T13:55:48.040Z,13.00
2023-04-07T13:58:14.917Z,13.00
2023-04-07T14:00:41.925Z,12.13
2023-04-07T14:03:09.597Z,12.82
2023-04-07T14:05:36.649Z,13.50
2023-04-07T14:08:03.546Z,13.88
2023-04-07T14:10:30.554Z,13.88
2023-04-07T14:12:57.622Z,14.73
2023-04-07T14:15:24.603Z,14.10
2023-04-07T14:17:51.762Z,13.65
2023-04-07T14:20:18.848Z,15.45
2023-04-07T14:22:45.838Z,15.18
2023-04-07T14:25:12.768Z,15.00
2023-04-07T14:27:39.775Z,16.08
2023-04-07T14:30:07.407Z,17.23
2023-04-07T14:32:34.489Z,17.75
2023-04-07T14:35:01.907Z,15.65
2023-04-07T14:37:29.472Z,20.90
2023-04-07T14:40:02.520Z,14.60
2023-04-07T14:42:30.922Z,14.75
2023-04-07T14:44:58.966Z,15.02
2023-04-07T14:47:26.549Z,17.00
2023-04-07T14:49:54.390Z,15.20
2023-04-07T14:52:22.168Z,15.77
2023-04-07T14:54:49.284Z,17.08
2023-04-07T14:57:16.791Z,16.92
2023-04-07T14:59:45.315Z,17.67
2023-04-07T15:02:13.133Z,17.95
2023-04-07T15:04:40.191Z,17.45
2023-04-07T15:07:09.653Z,15.38
2023-04-07T15:09:36.484Z,17.15
2023-04-07T15:12:05.152Z,17.27
2023-04-07T15:14:32.014Z,16.08
2023-04-07T15:16:58.843Z,15.02
2023-04-07T15:19:25.686Z,17.23
2023-04-07T15:21:52.498Z,18.63
2023-04-07T15:24:21.555Z,17.25
2023-04-07T15:26:49.680Z,17.25
2023-04-07T15:29:16.720Z,17.50
2023-04-07T15:31:43.589Z,20.10
2023-04-07T15:34:10.621Z,17.83
2023-04-07T15:36:37.518Z,16.10
2023-04-07T15:39:07.763Z,16.65
2023-04-07T15:41:34.601Z,16.35
2023-04-07T15:44:02.625Z,16.98
2023-04-07T15:46:29.796Z,17.98
2023-04-07T15:48:56.629Z,17.17
2023-04-07T15:51:23.733Z,17.77
2023-04-07T15:53:50.978Z,19.38
2023-04-07T15:56:18.036Z,20.48
2023-04-07T15:58:47.405Z,20.65
2023-04-07T16:01:14.306Z,21.98
2023-04-07T16:03:41.631Z,23.20
2023-04-07T16:06:08.748Z,21.83
2023-04-07T16:08:35.703Z,23.83
2023-04-07T16:11:02.877Z,23.77
2023-04-07T16:13:29.791Z,24.42
2023-04-07T16:15:57.681Z,24.75
2023-04-07T16:18:24.601Z,20.63
2023-04-07T16:20:51.806Z,21.25
2023-04-07T16:23:18.679Z,27.75
2023-04-07T16:25:45.836Z,29.23
2023-04-07T16:28:12.736Z,24.58
2023-04-07T16:30:40.156Z,24.63
2023-04-07T16:33:07.135Z,21.02
2023-04-07T16:35:37.330Z,21.92
2023-04-07T16:38:06.229Z,24.48
2023-04-07T16:40:33.508Z,22.55
2023-04-07T16:43:00.371Z,25.70
2023-04-07T16:45:27.256Z,22.45
2023-04-07T16:47:54.201Z,22.63
2023-04-07T16:50:21.625Z,23.60
2023-04-07T16:52:51.081Z,23.35
2023-04-07T16:55:18.003Z,21.65
2023-04-07T16:57:45.009Z,22.42
2023-04-07T17:00:12.643Z,20.83
2023-04-07T17:02:42.034Z,22.08
2023-04-07T17:05:09.502Z,21.63
2023-04-07T17:07:36.616Z,22.08
2023-04-07T17:10:06.547Z,20.02
2023-04-07T17:12:33.416Z,19.02
2023-04-07T17:15:00.442Z,18.05
2023-04-07T17:17:27.395Z,19.08
2023-04-07T17:19:57.191Z,19.00
2023-04-07T17:22:24.220Z,15.90
2023-04-07T17:24:51.990Z,17.38
2023-04-07T17:27:19.095Z,17.65
2023-04-07T17:29:45.965Z,16.60
2023-04-07T17:32:12.869Z,17.63
2023-04-07T17:34:39.680Z,17.85
2023-04-07T17:37:06.649Z,15.85
2023-04-07T17:39:33.443Z,14.85
2023-04-07T17:42:00.461Z,17.67
2023-04-07T17:44:27.290Z,17.83
2023-04-07T17:46:54.728Z,18.65
2023-04-07T17:49:21.568Z,17.23
2023-04-07T17:51:48.524Z,16.23
2023-04-07T17:54:16.148Z,14.52
2023-04-07T17:56:42.989Z,14.27
2023-04-07T17:59:09.981Z,14.25
2023-04-07T18:01:37.515Z,14.93
2023-04-07T18:04:06.554Z,13.73
2023-04-07T18:06:34.987Z,13.85
2023-04-07T18:09:02.112Z,14.13
2023-04-07T18:11:29.122Z,13.50
2023-04-07T18:13:56.578Z,14.55
2023-04-07T18:16:23.637Z,14.70
2023-04-07T18:18:50.519Z,13.60
2023-04-07T18:21:17.467Z,14.65
2023-04-07T18:23:44.370Z,13.52
2023-04-07T18:26:11.192Z,12.85
2023-04-07T18:28:37.978Z,13.40
2023-04-07T18:31:07.037Z,13.25
2023-04-07T18:33:34.786Z,13.05
2023-04-07T18:36:09.720Z,12.30
2023-04-07T18:38:38.092Z,12.18
2023-04-07T18:41:06.793Z,12.63
2023-04-07T18:43:33.720Z,13.05
2023-04-07T18:46:00.601Z,11.90
2023-04-07T18:48:27.598Z,11.98
2023-04-07T18:50:55.633Z,12.45
2023-04-07T18:53:24.751Z,11.13
2023-04-07T18:55:51.925Z,11.15
2023-04-07T18:58:20.141Z,11.60
2023-04-07T19:00:50.068Z,10.93
2023-04-07T19:03:17.477Z,10.55
2023-04-07T19:05:47.614Z,12.15
2023-04-07T19:08:16.085Z,12.70
2023-04-07T19:10:43.391Z,12.65
2023-04-07T19:13:10.331Z,12.95
2023-04-07T19:15:39.383Z,14.00
2023-04-07T19:18:07.960Z,12.52
2023-04-07T19:20:35.195Z,12.35
2023-04-07T19:23:02.168Z,11.93
2023-04-07T19:25:30.756Z,14.40
2023-04-07T19:27:57.974Z,13.20
2023-04-07T19:30:24.924Z,14.98
2023-04-07T19:32:52.507Z,13.95
2023-04-07T19:35:19.430Z,14.88
2023-04-07T19:37:47.941Z,19.02
2023-04-07T19:40:15.275Z,15.63
2023-04-07T19:42:42.283Z,14.75
2023-04-07T19:45:12.892Z,13.77
2023-04-07T19:47:39.791Z,18.52
2023-04-07T19:50:07.288Z,16.02
2023-04-07T19:52:34.211Z,16.10
2023-04-07T19:55:02.825Z,17.75
2023-04-07T19:57:31.534Z,16.75
2023-04-07T20:00:00.908Z,17.95
2023-04-07T20:02:28.334Z,19.08
2023-04-07T20:04:55.639Z,19.95
2023-04-07T20:07:22.823Z,19.23
2023-04-07T20:09:54.063Z,22.10
2023-04-07T20:12:21.203Z,22.70
2023-04-07T20:14:48.166Z,21.92
2023-04-07T20:17:15.143Z,23.02
2023-04-07T20:19:42.369Z,23.42
2023-04-07T20:22:09.449Z,23.55
2023-04-07T20:24:36.408Z,25.08
2023-04-07T20:27:03.480Z,25.17
2023-04-07T20:29:30.582Z,23.17
2023-04-07T20:31:59.844Z,23.48
2023-04-07T20:34:26.814Z,23.88
2023-04-07T20:36:54.222Z,22.80
2023-04-07T20:39:21.103Z,24.63
2023-04-07T20:41:48.073Z,24.40
2023-04-07T20:44:18.880Z,22.23
2023-04-07T20:46:48.542Z,23.38
2023-04-07T20:49:15.384Z,24.15
2023-04-07T20:51:42.316Z,26.17
2023-04-07T20:54:09.237Z,25.33
2023-04-07T20:56:36.931Z,29.13
2023-04-07T20:59:03.842Z,32.47
2023-04-07T21:01:31.019Z,30.98
2023-04-07T21:03:58.240Z,31.25
2023-04-07T21:06:25.161Z,28.15
2023-04-07T21:08:51.945Z,25.40
2023-04-07T21:11:19.015Z,22.48
2023-04-07T21:13:47.228Z,24.02
2023-04-07T21:16:14.187Z,23.55
2023-04-07T21:18:41.226Z,21.10
2023-04-07T21:21:08.319Z,21.48
2023-04-07T21:23:35.406Z,20.05
2023-04-07T21:26:03.306Z,20.20
2023-04-07T21:28:30.545Z,21.65
2023-04-07T21:30:57.473Z,22.60
2023-04-07T21:33:27.113Z,23.52
2023-04-07T21:35:55.514Z,23.80
2023-04-07T21:38:22.489Z,23.10
2023-04-07T21:40:49.640Z,21.80
2023-04-07T21:43:16.496Z,22.77
2023-04-07T21:45:43.559Z,23.23
2023-04-07T21:48:10.439Z,22.88
2023-04-07T21:50:38.098Z,22.52
2023-04-07T21:53:05.496Z,21.63
2023-04-07T21:55:32.407Z,24.38
2023-04-07T21:57:59.339Z,22.50
2023-04-07T22:00:26.226Z,21.58
2023-04-07T22:02:53.415Z,21.58
2023-04-07T22:05:21.175Z,20.15
2023-04-07T22:07:48.618Z,21.42
2023-04-07T22:10:15.780Z,23.27
2023-04-07T22:12:58.686Z,22.34
2023-04-07T22:15:25.767Z,23.95
2023-04-07T22:17:53.025Z,28.95
2023-04-07T22:20:19.975Z,30.42
2023-04-07T22:22:46.879Z,28.15
2023-04-07T22:25:13.851Z,28.27
2023-04-07T22:27:40.926Z,28.90
2023-04-07T22:30:10.253Z,25.17
2023-04-07T22:32:37.353Z,23.90
2023-04-07T22:35:04.562Z,23.60
2023-04-07T22:37:31.422Z,23.08
2023-04-07T22:39:58.257Z,22.75
2023-04-07T22:42:25.061Z,21.55
2023-04-07T22:44:51.935Z,22.88
2023-04-07T22:47:19.726Z,24.05
2023-04-07T22:49:46.836Z,25.50
2023-04-07T22:52:13.744Z,26.23
2023-04-07T22:54:40.544Z,30.10
2023-04-07T22:57:07.432Z,31.33
2023-04-07T22:59:34.329Z,31.02
2023-04-07T23:02:01.516Z,28.70
2023-04-07T23:04:28.934Z,32.47
2023-04-07T23:06:56.146Z,33.75
2023-04-07T23:09:23.112Z,33.35
2023-04-07T23:11:50.328Z,32.70
2023-04-07T23:14:20.415Z,35.67
2023-04-07T23:16:47.392Z,35.20
2023-04-07T23:19:15.684Z,31.50
2023-04-07T23:21:43.259Z,33.85
2023-04-07T23:24:10.392Z,37.33
2023-04-07T23:26:37.308Z,34.10
2023-04-07T23:29:04.146Z,31.90
2023-04-07T23:31:31.434Z,34.03
2023-04-07T23:33:59.795Z,30.25
2023-04-07T23:36:27.285Z,28.98
2023-04-07T23:38:57.289Z,26.48
2023-04-07T23:41:24.296Z,25.38
2023-04-07T23:43:51.151Z,28.15
2023-04-07T23:46:18.287Z,28.95
2023-04-07T23:48:45.292Z,29.95
2023-04-07T23:51:12.877Z,27.10
2023-04-07T23:53:39.671Z,23.92
2023-04-07T23:56:07.159Z,27.40
2023-04-07T23:58:34.047Z,24.15
